createdAt,value
2022-08-26T00:00:45.408Z,23.14
2022-08-26T00:02:46.779Z,23.14
2022-08-26T00:04:48.114Z,23.12
2022-08-26T00:06:49.645Z,23.11
2022-08-26T00:08:50.996Z,23.10
2022-08-26T00:10:52.304Z,23.08
2022-08-26T00:12:53.662Z,23.08
2022-08-26T00:14:54.970Z,23.07
2022-08-26T00:16:56.894Z,23.09
2022-08-26T00:19:00.071Z,23.13
2022-08-26T00:21:01.402Z,23.14
2022-08-26T00:23:07.979Z,23.14
2022-08-26T00:25:09.463Z,23.14
2022-08-26T00:27:11.243Z,23.14
2022-08-26T00:29:12.595Z,23.14
2022-08-26T00:31:14.364Z,23.14
2022-08-26T00:33:15.664Z,23.15
2022-08-26T00:35:19.779Z,23.16
2022-08-26T00:37:21.695Z,23.20
2022-08-26T00:39:23.735Z,23.20
2022-08-26T00:41:25.034Z,23.18
2022-08-26T00:43:27.159Z,23.19
2022-08-26T00:45:28.960Z,23.18
2022-08-26T00:47:31.070Z,23.16
2022-08-26T00:49:32.611Z,23.16
2022-08-26T00:51:33.969Z,23.15
2022-08-26T00:53:35.278Z,23.14
2022-08-26T00:55:37.914Z,23.15
2022-08-26T00:57:39.602Z,23.14
2022-08-26T00:59:40.911Z,23.14
2022-08-26T01:01:42.269Z,23.14
2022-08-26T01:03:47.428Z,23.14
2022-08-26T01:05:49.091Z,23.14
2022-08-26T01:07:50.452Z,23.14
2022-08-26T01:09:51.754Z,23.13
2022-08-26T01:11:53.098Z,23.13
2022-08-26T01:13:54.696Z,23.12
2022-08-26T01:15:56.651Z,23.12
2022-08-26T01:17:58.778Z,23.14
2022-08-26T01:20:01.128Z,23.16
2022-08-26T01:22:02.759Z,23.16
2022-08-26T01:24:04.214Z,23.16
2022-08-26T01:26:05.597Z,23.13
2022-08-26T01:28:09.029Z,23.14
2022-08-26T01:30:11.659Z,23.15
2022-08-26T01:32:12.951Z,23.13
2022-08-26T01:34:14.286Z,23.13
2022-08-26T01:36:16.070Z,23.13
2022-08-26T01:38:18.311Z,23.11
2022-08-26T01:40:19.742Z,23.13
2022-08-26T01:42:21.138Z,23.14
2022-08-26T01:44:22.456Z,23.13
2022-08-26T01:46:23.804Z,23.15
2022-08-26T01:48:25.270Z,23.15
2022-08-26T01:50:27.841Z,23.16
2022-08-26T01:52:31.402Z,23.17
2022-08-26T01:54:32.730Z,23.19
2022-08-26T01:56:36.464Z,23.19
2022-08-26T01:58:37.920Z,23.19
2022-08-26T02:00:39.255Z,23.16
2022-08-26T02:02:40.589Z,23.17
2022-08-26T02:04:44.834Z,23.16
2022-08-26T02:06:46.142Z,23.18
2022-08-26T02:08:47.463Z,23.13
2022-08-26T02:10:48.764Z,23.11
2022-08-26T02:12:50.394Z,23.10
2022-08-26T02:14:53.253Z,23.08
2022-08-26T02:16:55.251Z,23.08
2022-08-26T02:18:57.007Z,23.07
2022-08-26T02:20:58.500Z,23.07
2022-08-26T02:22:59.802Z,23.08
2022-08-26T02:25:01.115Z,23.08
2022-08-26T02:27:03.678Z,23.09
2022-08-26T02:29:04.987Z,23.09
2022-08-26T02:31:08.963Z,23.09
2022-08-26T02:33:11.382Z,23.06
2022-08-26T02:35:12.672Z,23.08
2022-08-26T02:37:14.520Z,23.10
2022-08-26T02:39:22.140Z,23.18
2022-08-26T02:41:23.868Z,23.30
2022-08-26T02:43:31.736Z,23.26
2022-08-26T02:45:34.994Z,23.11
2022-08-26T02:47:36.882Z,23.00
2022-08-26T02:49:38.190Z,22.92
2022-08-26T02:51:39.548Z,22.87
2022-08-26T02:53:41.403Z,23.01
2022-08-26T02:55:44.193Z,23.02
2022-08-26T02:57:45.583Z,22.92
2022-08-26T02:59:46.986Z,22.81
2022-08-26T03:01:49.598Z,22.76
2022-08-26T03:03:50.977Z,22.73
2022-08-26T03:05:52.799Z,22.72
2022-08-26T03:07:55.698Z,21.37
2022-08-26T03:09:57.524Z,22.67
2022-08-26T03:11:58.895Z,22.65
2022-08-26T03:14:00.641Z,22.64
2022-08-26T03:16:04.783Z,22.63
2022-08-26T03:18:06.710Z,22.61
2022-08-26T03:20:11.440Z,22.61
2022-08-26T03:22:15.019Z,22.59
2022-08-26T03:24:17.758Z,22.59
2022-08-26T03:26:19.231Z,22.57
2022-08-26T03:28:20.547Z,22.56
2022-08-26T03:30:44.625Z,22.56
2022-08-26T03:32:46.514Z,22.53
2022-08-26T03:34:47.847Z,22.52
2022-08-26T03:36:49.187Z,22.52
2022-08-26T03:38:51.414Z,22.51
2022-08-26T03:40:52.806Z,22.50
2022-08-26T03:42:54.114Z,22.49
2022-08-26T03:44:55.421Z,22.49
2022-08-26T03:46:56.742Z,22.48
2022-08-26T03:48:58.494Z,22.48
2022-08-26T03:51:00.128Z,22.47
2022-08-26T03:53:04.518Z,22.45
2022-08-26T03:55:08.655Z,22.45
2022-08-26T03:57:09.958Z,22.44
2022-08-26T03:59:11.351Z,22.44
2022-08-26T04:01:13.596Z,22.43
2022-08-26T04:03:37.558Z,22.42
2022-08-26T04:05:38.963Z,22.41
2022-08-26T04:07:40.279Z,22.41
2022-08-26T04:09:41.598Z,22.39
2022-08-26T04:11:42.907Z,22.40
2022-08-26T04:13:44.206Z,22.39
2022-08-26T04:15:45.706Z,22.38
2022-08-26T04:17:47.883Z,22.39
2022-08-26T04:19:50.174Z,22.37
2022-08-26T04:21:53.301Z,22.37
2022-08-26T04:23:54.691Z,22.36
2022-08-26T04:25:56.492Z,22.36
2022-08-26T04:27:57.893Z,22.35
2022-08-26T04:29:59.198Z,22.34
2022-08-26T04:32:00.506Z,22.35
2022-08-26T04:34:01.823Z,22.34
2022-08-26T04:36:03.201Z,22.34
2022-08-26T04:38:05.846Z,22.33
2022-08-26T04:40:10.132Z,22.33
2022-08-26T04:42:12.583Z,22.33
2022-08-26T04:44:14.178Z,22.34
2022-08-26T04:46:15.772Z,22.33
2022-08-26T04:48:17.315Z,22.32
2022-08-26T04:50:20.678Z,22.31
2022-08-26T04:52:22.907Z,22.31
2022-08-26T04:54:25.070Z,22.31
2022-08-26T04:56:26.595Z,22.31
2022-08-26T04:58:27.964Z,22.30
2022-08-26T05:00:29.343Z,22.30
2022-08-26T05:02:31.515Z,22.29
2022-08-26T05:04:32.827Z,22.29
2022-08-26T05:06:37.007Z,22.29
2022-08-26T05:08:38.568Z,22.29
2022-08-26T05:10:39.871Z,22.28
2022-08-26T05:12:41.835Z,22.28
2022-08-26T05:14:46.395Z,22.27
2022-08-26T05:16:49.348Z,22.27
2022-08-26T05:18:50.788Z,22.28
2022-08-26T05:20:54.034Z,22.28
2022-08-26T05:22:56.118Z,22.28
2022-08-26T05:24:57.486Z,22.26
2022-08-26T05:26:58.854Z,22.27
2022-08-26T05:29:01.474Z,22.26
2022-08-26T05:31:02.846Z,22.26
2022-08-26T05:33:04.230Z,22.26
2022-08-26T05:35:05.530Z,22.25
2022-08-26T05:37:10.310Z,22.25
2022-08-26T05:39:11.889Z,22.26
2022-08-26T05:41:14.141Z,22.25
2022-08-26T05:43:17.890Z,22.26
2022-08-26T05:45:24.171Z,22.26
2022-08-26T05:47:25.588Z,22.25
2022-08-26T05:49:26.899Z,22.25
2022-08-26T05:51:29.260Z,22.24
2022-08-26T05:53:32.622Z,22.25
2022-08-26T05:55:33.954Z,22.24
2022-08-26T05:57:39.974Z,22.24
2022-08-26T05:59:43.879Z,22.23
2022-08-26T06:01:47.271Z,22.24
2022-08-26T06:03:49.009Z,22.24
2022-08-26T06:05:50.382Z,22.24
2022-08-26T06:08:10.436Z,22.24
2022-08-26T06:10:32.526Z,22.23
2022-08-26T06:12:33.103Z,22.23
2022-08-26T06:14:35.607Z,22.23
2022-08-26T06:16:38.235Z,22.22
2022-08-26T06:18:39.559Z,22.23
2022-08-26T06:20:44.061Z,22.22
2022-08-26T06:23:17.311Z,22.22
2022-08-26T06:25:37.191Z,22.22
2022-08-26T06:27:38.708Z,22.23
2022-08-26T06:29:40.048Z,21.40
2022-08-26T06:31:41.366Z,22.22
2022-08-26T06:33:42.737Z,22.22
2022-08-26T06:35:45.622Z,22.23
2022-08-26T06:37:47.258Z,22.22
2022-08-26T06:39:49.096Z,22.22
2022-08-26T06:41:52.975Z,22.20
2022-08-26T06:43:54.334Z,22.21
2022-08-26T06:45:55.672Z,22.21
2022-08-26T06:47:57.690Z,22.21
2022-08-26T06:49:59.001Z,22.22
2022-08-26T06:52:00.307Z,22.20
2022-08-26T06:54:01.875Z,22.22
2022-08-26T06:56:03.194Z,22.21
2022-08-26T06:58:04.603Z,22.20
2022-08-26T07:00:07.740Z,22.19
2022-08-26T07:02:09.292Z,22.21
2022-08-26T07:04:15.540Z,22.21
2022-08-26T07:06:19.385Z,22.21
2022-08-26T07:08:20.774Z,22.22
2022-08-26T07:10:22.140Z,22.21
2022-08-26T07:12:23.513Z,22.22
2022-08-26T07:14:26.637Z,22.21
2022-08-26T07:16:28.050Z,22.22
2022-08-26T07:18:30.889Z,22.22
2022-08-26T07:20:32.202Z,22.22
2022-08-26T07:22:33.558Z,22.22
2022-08-26T07:24:35.117Z,22.22
2022-08-26T07:26:36.679Z,22.22
2022-08-26T07:28:39.460Z,22.22
2022-08-26T07:30:41.138Z,22.22
2022-08-26T07:32:43.439Z,22.23
2022-08-26T07:34:44.740Z,22.23
2022-08-26T07:36:46.067Z,22.22
2022-08-26T07:38:48.179Z,22.23
2022-08-26T07:40:50.019Z,22.23
2022-08-26T07:42:51.363Z,22.24
2022-08-26T07:44:53.890Z,22.24
2022-08-26T07:46:55.197Z,22.28
2022-08-26T07:48:56.582Z,22.33
2022-08-26T07:50:57.891Z,22.37
2022-08-26T07:52:59.259Z,22.40
2022-08-26T07:55:01.954Z,22.43
2022-08-26T07:57:05.204Z,22.47
2022-08-26T07:59:13.650Z,22.50
2022-08-26T08:01:16.306Z,22.52
2022-08-26T08:03:17.743Z,22.55
2022-08-26T08:05:19.468Z,22.56
2022-08-26T08:07:20.826Z,22.58
2022-08-26T08:09:27.217Z,22.59
2022-08-26T08:11:31.154Z,22.61
2022-08-26T08:13:32.582Z,22.63
2022-08-26T08:15:33.918Z,22.65
2022-08-26T08:17:36.873Z,22.66
2022-08-26T08:19:39.206Z,22.68
2022-08-26T08:21:40.655Z,22.69
2022-08-26T08:23:41.960Z,22.70
2022-08-26T08:25:43.771Z,22.71
2022-08-26T08:27:45.598Z,22.72
2022-08-26T08:29:47.370Z,22.73
2022-08-26T08:31:58.067Z,22.75
2022-08-26T08:34:00.087Z,22.75
2022-08-26T08:36:01.447Z,22.77
2022-08-26T08:38:06.399Z,22.78
2022-08-26T08:40:09.139Z,22.80
2022-08-26T08:42:10.878Z,22.81
2022-08-26T08:44:12.220Z,22.82
2022-08-26T08:46:13.590Z,22.83
2022-08-26T08:48:15.043Z,22.84
2022-08-26T08:50:17.695Z,22.86
2022-08-26T08:52:19.023Z,22.86
2022-08-26T08:54:22.044Z,22.80
2022-08-26T08:56:26.485Z,22.77
2022-08-26T08:58:28.319Z,22.80
2022-08-26T09:00:30.444Z,22.84
2022-08-26T09:02:32.101Z,22.87
2022-08-26T09:04:33.591Z,22.88
2022-08-26T09:06:34.907Z,22.82
2022-08-26T09:08:37.000Z,22.80
2022-08-26T09:10:38.333Z,22.76
2022-08-26T09:12:39.638Z,22.82
2022-08-26T09:14:41.003Z,22.87
2022-08-26T09:16:42.549Z,22.87
2022-08-26T09:18:46.179Z,22.89
2022-08-26T09:20:47.672Z,22.90
2022-08-26T09:22:51.409Z,22.93
2022-08-26T09:24:52.732Z,22.94
2022-08-26T09:26:56.564Z,22.92
2022-08-26T09:28:58.226Z,22.91
2022-08-26T09:30:59.838Z,22.91
2022-08-26T09:33:01.389Z,22.94
2022-08-26T09:35:02.784Z,22.96
2022-08-26T09:37:04.596Z,22.90
2022-08-26T09:39:06.115Z,22.89
2022-08-26T09:41:08.333Z,22.94
2022-08-26T09:43:10.295Z,22.97
2022-08-26T09:45:12.912Z,22.97
2022-08-26T09:47:15.102Z,22.96
2022-08-26T09:49:16.408Z,22.87
2022-08-26T09:51:18.400Z,22.81
2022-08-26T09:53:21.134Z,22.77
2022-08-26T09:55:29.920Z,22.83
2022-08-26T09:57:31.332Z,22.80
2022-08-26T09:59:34.102Z,22.88
2022-08-26T10:01:36.081Z,22.92
2022-08-26T10:03:37.559Z,22.97
2022-08-26T10:05:38.929Z,22.92
2022-08-26T10:07:41.275Z,22.84
2022-08-26T10:09:45.728Z,22.80
2022-08-26T10:11:47.293Z,22.82
2022-08-26T10:13:49.096Z,22.82
2022-08-26T10:15:51.160Z,22.77
2022-08-26T10:17:52.630Z,22.80
2022-08-26T10:19:56.592Z,22.81
2022-08-26T10:21:58.906Z,22.76
2022-08-26T10:24:00.217Z,22.73
2022-08-26T10:26:03.043Z,22.72
2022-08-26T10:28:04.664Z,22.70
2022-08-26T10:30:06.285Z,22.69
2022-08-26T10:32:08.525Z,22.67
2022-08-26T10:34:15.178Z,22.65
2022-08-26T10:36:46.951Z,22.64
2022-08-26T10:38:57.546Z,22.77
2022-08-26T10:41:01.411Z,22.76
2022-08-26T10:43:08.481Z,22.72
2022-08-26T10:45:15.041Z,22.71
2022-08-26T10:47:16.747Z,22.68
2022-08-26T10:49:19.378Z,22.67
2022-08-26T10:51:20.674Z,21.90
2022-08-26T10:53:25.295Z,22.75
2022-08-26T10:55:27.851Z,22.69
2022-08-26T10:57:30.198Z,22.68
2022-08-26T10:59:31.938Z,22.66
2022-08-26T11:01:42.188Z,22.71
2022-08-26T11:03:43.747Z,22.78
2022-08-26T11:05:45.406Z,22.86
2022-08-26T11:07:48.450Z,22.91
2022-08-26T11:09:50.824Z,22.94
2022-08-26T11:11:52.182Z,22.97
2022-08-26T11:13:53.515Z,22.99
2022-08-26T11:15:54.823Z,22.97
2022-08-26T11:17:56.127Z,22.97
2022-08-26T11:20:01.462Z,23.00
2022-08-26T11:22:07.245Z,23.04
2022-08-26T11:24:09.664Z,23.05
2022-08-26T11:26:11.559Z,23.08
2022-08-26T11:28:20.193Z,22.98
2022-08-26T11:30:24.111Z,23.02
2022-08-26T11:32:25.549Z,22.95
2022-08-26T11:34:27.227Z,22.94
2022-08-26T11:36:28.529Z,22.91
2022-08-26T11:38:29.895Z,22.88
2022-08-26T11:40:32.138Z,22.84
2022-08-26T11:42:34.346Z,22.82
2022-08-26T11:44:35.685Z,22.85
2022-08-26T11:46:37.707Z,22.95
2022-08-26T11:48:40.472Z,22.94
2022-08-26T11:50:41.795Z,22.89
2022-08-26T11:52:43.760Z,22.87
2022-08-26T11:54:45.351Z,22.89
2022-08-26T11:56:46.722Z,22.93
2022-08-26T11:58:48.051Z,23.01
2022-08-26T12:00:49.352Z,22.98
2022-08-26T12:02:50.731Z,22.95
2022-08-26T12:04:53.934Z,23.00
2022-08-26T12:06:55.943Z,22.95
2022-08-26T12:08:57.263Z,22.99
2022-08-26T12:10:59.589Z,22.93
2022-08-26T12:13:03.434Z,22.89
2022-08-26T12:15:04.775Z,22.84
2022-08-26T12:17:06.635Z,22.83
2022-08-26T12:19:11.209Z,22.81
2022-08-26T12:21:12.532Z,22.79
2022-08-26T12:23:13.842Z,22.76
2022-08-26T12:25:15.255Z,22.75
2022-08-26T12:27:17.800Z,22.76
2022-08-26T12:29:20.192Z,22.75
2022-08-26T12:31:28.139Z,22.75
2022-08-26T12:33:29.587Z,22.78
2022-08-26T12:35:30.921Z,22.91
2022-08-26T12:37:33.675Z,23.03
2022-08-26T12:39:35.637Z,23.10
2022-08-26T12:41:37.095Z,23.16
2022-08-26T12:43:39.282Z,23.22
2022-08-26T12:45:43.053Z,23.26
2022-08-26T12:47:44.521Z,23.20
2022-08-26T12:49:45.868Z,23.22
2022-08-26T12:51:47.232Z,23.59
2022-08-26T12:53:48.552Z,24.28
2022-08-26T12:55:50.688Z,24.48
2022-08-26T12:57:52.056Z,24.82
2022-08-26T12:59:53.365Z,24.72
2022-08-26T13:01:54.797Z,24.21
2022-08-26T13:03:56.340Z,24.08
2022-08-26T13:05:57.853Z,24.00
2022-08-26T13:07:59.160Z,23.96
2022-08-26T13:10:01.143Z,23.99
2022-08-26T13:12:02.487Z,23.89
2022-08-26T13:14:07.181Z,23.82
2022-08-26T13:16:08.756Z,23.76
2022-08-26T13:18:10.124Z,23.80
2022-08-26T13:20:11.463Z,23.95
2022-08-26T13:22:12.980Z,23.99
2022-08-26T13:24:14.288Z,23.94
2022-08-26T13:26:15.656Z,23.89
2022-08-26T13:28:17.036Z,23.86
2022-08-26T13:30:18.346Z,23.85
2022-08-26T13:32:20.456Z,23.77
2022-08-26T13:34:22.077Z,23.71
2022-08-26T13:36:23.380Z,23.66
2022-08-26T13:38:33.264Z,23.62
2022-08-26T13:40:35.311Z,23.60
2022-08-26T13:42:36.797Z,23.63
2022-08-26T13:44:53.144Z,23.69
2022-08-26T13:46:54.670Z,23.79
2022-08-26T13:48:56.030Z,23.85
2022-08-26T13:50:57.420Z,23.85
2022-08-26T13:52:58.787Z,23.88
2022-08-26T13:55:00.550Z,23.88
2022-08-26T13:57:02.252Z,23.91
2022-08-26T13:59:03.634Z,23.95
2022-08-26T14:01:05.071Z,24.09
2022-08-26T14:03:09.190Z,24.50
2022-08-26T14:05:14.047Z,24.81
2022-08-26T14:07:15.440Z,24.59
2022-08-26T14:09:16.774Z,24.28
2022-08-26T14:11:18.424Z,24.08
2022-08-26T14:13:19.852Z,23.99
2022-08-26T14:15:21.345Z,23.91
2022-08-26T14:17:22.692Z,23.85
2022-08-26T14:19:24.296Z,23.88
2022-08-26T14:21:25.808Z,24.35
2022-08-26T14:23:27.517Z,24.71
2022-08-26T14:25:28.869Z,24.88
2022-08-26T14:27:30.180Z,24.89
2022-08-26T14:29:31.651Z,24.96
2022-08-26T14:31:33.434Z,25.07
2022-08-26T14:33:34.855Z,25.06
2022-08-26T14:35:36.241Z,25.15
2022-08-26T14:37:37.552Z,25.18
2022-08-26T14:39:38.906Z,25.27
2022-08-26T14:41:40.252Z,25.14
2022-08-26T14:43:41.567Z,25.06
2022-08-26T14:47:49.594Z,24.79
2022-08-26T14:49:50.907Z,24.97
2022-08-26T14:51:52.277Z,25.10
2022-08-26T14:54:12.071Z,25.15
2022-08-26T14:56:16.597Z,25.20
2022-08-26T14:58:18.215Z,25.25
2022-08-26T15:00:19.523Z,25.24
2022-08-26T15:02:32.626Z,25.27
2022-08-26T15:04:34.945Z,25.25
2022-08-26T15:06:36.316Z,25.18
2022-08-26T15:08:38.224Z,25.17
2022-08-26T15:10:39.577Z,25.17
2022-08-26T15:12:40.978Z,25.13
2022-08-26T15:14:42.348Z,25.11
2022-08-26T15:16:43.771Z,25.13
2022-08-26T15:18:45.391Z,25.13
2022-08-26T15:20:47.020Z,25.07
2022-08-26T15:22:48.353Z,24.96
2022-08-26T15:24:51.854Z,24.81
2022-08-26T15:26:55.212Z,24.98
2022-08-26T15:28:56.532Z,25.12
2022-08-26T15:30:58.049Z,25.12
2022-08-26T15:32:59.363Z,24.78
2022-08-26T15:35:00.672Z,24.96
2022-08-26T15:37:02.159Z,25.09
2022-08-26T15:39:03.481Z,25.15
2022-08-26T15:41:04.842Z,25.12
2022-08-26T15:43:25.510Z,25.15
2022-08-26T15:45:27.844Z,25.03
2022-08-26T15:47:29.194Z,24.99
2022-08-26T15:49:30.956Z,24.96
2022-08-26T15:51:32.362Z,24.95
2022-08-26T15:53:33.726Z,25.00
2022-08-26T15:55:35.078Z,24.91
2022-08-26T15:57:36.408Z,24.95
2022-08-26T15:59:37.887Z,24.95
2022-08-26T16:01:39.287Z,24.93
2022-08-26T16:03:40.671Z,24.90
2022-08-26T16:05:43.557Z,24.88
2022-08-26T16:07:45.120Z,24.80
2022-08-26T16:09:48.972Z,24.71
2022-08-26T16:11:55.834Z,24.50
2022-08-26T16:13:57.219Z,24.69
2022-08-26T16:15:58.577Z,24.72
2022-08-26T16:18:00.836Z,24.75
2022-08-26T16:20:02.555Z,24.78
2022-08-26T16:22:04.842Z,24.80
2022-08-26T16:24:06.172Z,24.68
2022-08-26T16:26:07.500Z,24.72
2022-08-26T16:28:12.955Z,24.41
2022-08-26T16:30:14.600Z,24.06
2022-08-26T16:32:15.915Z,24.03
2022-08-26T16:34:17.268Z,24.35
2022-08-26T17:03:16.963Z,23.31
2022-08-26T17:05:18.300Z,23.97
2022-08-26T17:07:19.707Z,24.26
2022-08-26T17:09:21.017Z,24.32
2022-08-26T17:11:22.343Z,24.30
2022-08-26T17:13:35.403Z,24.28
2022-08-26T17:15:37.310Z,24.31
2022-08-26T17:17:39.645Z,24.35
2022-08-26T17:19:47.063Z,24.43
2022-08-26T17:21:49.113Z,24.40
2022-08-26T17:23:50.433Z,24.31
2022-08-26T17:25:51.761Z,24.40
2022-08-26T17:27:53.185Z,24.37
2022-08-26T17:29:54.740Z,24.37
2022-08-26T17:31:56.181Z,24.45
2022-08-26T17:33:57.624Z,24.49
2022-08-26T17:35:58.927Z,24.36
2022-08-26T17:38:00.340Z,24.10
2022-08-26T17:40:03.105Z,24.55
2022-08-26T17:42:05.984Z,24.78
2022-08-26T17:44:07.648Z,24.62
2022-08-26T17:46:09.113Z,24.24
2022-08-26T17:48:11.101Z,24.19
2022-08-26T17:50:12.946Z,24.55
2022-08-26T17:52:14.438Z,24.78
2022-08-26T17:54:15.758Z,24.84
2022-08-26T17:56:17.197Z,24.95
2022-08-26T17:58:20.003Z,24.88
2022-08-26T18:00:21.359Z,24.83
2022-08-26T18:02:22.745Z,24.85
2022-08-26T18:04:24.172Z,24.82
2022-08-26T18:06:25.623Z,24.83
2022-08-26T18:08:27.963Z,24.83
2022-08-26T18:10:29.287Z,24.80
2022-08-26T18:12:31.627Z,24.88
2022-08-26T18:14:33.173Z,24.91
2022-08-26T18:16:38.287Z,24.91
2022-08-26T18:18:39.683Z,24.92
2022-08-26T18:20:41.151Z,24.90
2022-08-26T18:22:42.449Z,24.90
2022-08-26T18:24:58.784Z,24.58
2022-08-26T18:27:00.639Z,24.49
2022-08-26T18:29:01.943Z,24.87
2022-08-26T18:31:03.549Z,24.99
2022-08-26T18:33:04.972Z,25.06
2022-08-26T18:35:06.363Z,25.07
2022-08-26T18:39:13.906Z,25.06
2022-08-26T18:41:15.313Z,25.08
2022-08-26T18:43:16.980Z,25.07
2022-08-26T18:45:18.395Z,25.01
2022-08-26T18:47:19.756Z,24.92
2022-08-26T18:49:21.076Z,24.93
2022-08-26T18:51:22.428Z,24.96
2022-08-26T18:53:23.807Z,24.96
2022-08-26T18:55:25.446Z,24.96
2022-08-26T18:57:26.809Z,24.98
2022-08-26T18:59:30.195Z,25.01
2022-08-26T19:01:32.262Z,25.07
2022-08-26T19:03:33.709Z,25.06
2022-08-26T19:05:35.030Z,25.07
2022-08-26T19:07:39.586Z,25.07
2022-08-26T19:09:41.086Z,25.14
2022-08-26T19:11:43.528Z,25.13
2022-08-26T19:13:45.119Z,24.96
2022-08-26T19:15:46.436Z,24.65
2022-08-26T19:17:48.176Z,24.29
2022-08-26T19:19:49.840Z,24.71
2022-08-26T19:21:51.793Z,24.96
2022-08-26T19:23:53.499Z,24.98
2022-08-26T19:25:56.906Z,24.98
2022-08-26T19:27:58.223Z,25.02
2022-08-26T19:29:59.583Z,25.11
2022-08-26T19:32:01.568Z,25.13
2022-08-26T19:34:02.989Z,25.27
2022-08-26T19:36:06.446Z,25.53
2022-08-26T19:38:07.970Z,25.59
2022-08-26T19:40:09.776Z,25.45
2022-08-26T19:42:11.153Z,25.32
2022-08-26T19:44:13.073Z,25.35
2022-08-26T19:46:14.547Z,25.31
2022-08-26T19:48:16.268Z,25.38
2022-08-26T19:50:17.698Z,25.38
2022-08-26T19:52:19.050Z,25.41
2022-08-26T19:54:22.615Z,25.37
2022-08-26T19:56:23.969Z,25.37
2022-08-26T19:58:25.317Z,25.36
2022-08-26T20:00:26.738Z,25.39
2022-08-26T20:02:28.189Z,25.42
2022-08-26T20:04:29.674Z,25.42
2022-08-26T20:06:31.043Z,25.42
2022-08-26T20:08:32.392Z,25.44
2022-08-26T20:10:35.231Z,25.47
2022-08-26T20:12:37.775Z,25.40
2022-08-26T20:14:39.123Z,25.44
2022-08-26T20:16:40.605Z,25.40
2022-08-26T20:19:00.955Z,25.10
2022-08-26T20:21:20.910Z,25.27
2022-08-26T20:23:22.378Z,25.39
2022-08-26T20:25:23.763Z,25.45
2022-08-26T20:27:37.726Z,25.49
2022-08-26T20:29:39.861Z,25.53
2022-08-26T20:31:41.329Z,25.52
2022-08-26T20:33:46.424Z,25.50
2022-08-26T20:35:47.999Z,25.51
2022-08-26T20:37:49.323Z,25.51
2022-08-26T20:39:50.794Z,25.54
2022-08-26T20:41:52.201Z,25.60
2022-08-26T20:43:53.549Z,25.57
2022-08-26T20:45:54.933Z,25.54
2022-08-26T20:47:56.271Z,25.54
2022-08-26T20:49:57.656Z,25.52
2022-08-26T20:51:58.997Z,25.53
2022-08-26T20:54:01.327Z,25.48
2022-08-26T20:56:02.778Z,25.50
2022-08-26T20:58:04.161Z,25.49
2022-08-26T21:00:05.640Z,25.50
2022-08-26T21:02:06.967Z,25.51
2022-08-26T21:04:08.643Z,25.53
2022-08-26T21:06:10.043Z,25.55
2022-08-26T21:08:12.092Z,25.53
2022-08-26T21:10:13.675Z,25.57
2022-08-26T21:12:15.080Z,25.56
2022-08-26T21:14:17.276Z,25.57
2022-08-26T21:16:19.647Z,25.57
2022-08-26T21:18:22.341Z,25.57
2022-08-26T21:20:24.126Z,25.20
2022-08-26T21:22:25.483Z,25.28
2022-08-26T21:24:26.910Z,25.45
2022-08-26T21:26:28.255Z,25.47
2022-08-26T21:28:29.581Z,25.41
2022-08-26T21:30:31.427Z,25.48
2022-08-26T21:32:34.632Z,25.48
2022-08-26T21:34:36.002Z,25.49
2022-08-26T21:36:37.404Z,25.44
2022-08-26T21:38:38.772Z,25.52
2022-08-26T21:40:40.122Z,25.49
2022-08-26T21:42:41.488Z,25.52
2022-08-26T21:44:44.772Z,25.50
2022-08-26T21:46:50.750Z,25.49
2022-08-26T21:48:52.150Z,25.48
2022-08-26T21:50:53.583Z,25.57
2022-08-26T21:52:54.959Z,25.80
2022-08-26T21:54:56.325Z,25.73
2022-08-26T21:56:57.657Z,25.68
2022-08-26T21:58:59.041Z,25.58
2022-08-26T22:01:00.479Z,25.54
2022-08-26T22:03:01.877Z,25.62
2022-08-26T22:05:03.252Z,25.63
2022-08-26T22:07:05.007Z,25.61
2022-08-26T22:09:06.378Z,25.63
2022-08-26T22:11:09.393Z,25.68
2022-08-26T22:13:10.728Z,25.62
2022-08-26T22:15:12.468Z,25.53
2022-08-26T22:17:13.911Z,25.57
2022-08-26T22:19:17.085Z,25.60
2022-08-26T22:21:18.835Z,25.59
2022-08-26T22:23:20.842Z,25.63
2022-08-26T22:25:22.197Z,25.57
2022-08-26T22:27:23.541Z,25.34
2022-08-26T22:29:25.146Z,25.70
2022-08-26T22:31:28.129Z,25.68
2022-08-26T22:33:38.775Z,25.66
2022-08-26T22:35:40.932Z,25.72
2022-08-26T22:37:42.267Z,25.70
2022-08-26T22:39:43.700Z,25.75
2022-08-26T22:41:45.334Z,25.71
2022-08-26T22:43:46.666Z,25.41
2022-08-26T22:45:48.085Z,24.99
2022-08-26T22:47:49.437Z,25.17
2022-08-26T22:49:50.799Z,25.45
2022-08-26T22:51:52.222Z,25.63
2022-08-26T22:53:53.613Z,25.76
2022-08-26T22:55:54.920Z,25.94
2022-08-26T22:57:56.252Z,25.96
2022-08-26T22:59:57.619Z,25.99
2022-08-26T23:01:58.952Z,25.91
2022-08-26T23:04:00.403Z,25.87
2022-08-26T23:06:03.419Z,25.85
2022-08-26T23:08:04.904Z,25.75
2022-08-26T23:10:06.265Z,25.71
2022-08-26T23:12:07.624Z,25.60
2022-08-26T23:14:09.008Z,25.65
2022-08-26T23:16:10.980Z,25.78
2022-08-26T23:18:12.506Z,25.68
2022-08-26T23:20:14.072Z,25.45
2022-08-26T23:22:17.443Z,25.20
2022-08-26T23:24:18.824Z,25.06
2022-08-26T23:26:20.152Z,24.97
2022-08-26T23:28:21.517Z,24.92
2022-08-26T23:30:22.822Z,24.89
2022-08-26T23:32:24.131Z,24.85
2022-08-26T23:34:44.363Z,24.80
2022-08-26T23:36:47.322Z,24.77
2022-08-26T23:38:53.181Z,24.74
2022-08-26T23:40:54.671Z,24.73
2022-08-26T23:42:55.995Z,24.69
2022-08-26T23:44:57.347Z,24.69
2022-08-26T23:46:58.729Z,24.67
2022-08-26T23:49:00.103Z,24.67
2022-08-26T23:51:20.176Z,24.66
2022-08-26T23:53:21.701Z,24.63
2022-08-26T23:55:23.471Z,24.63
2022-08-26T23:57:24.879Z,24.60
2022-08-26T23:59:26.235Z,24.59
